Terminal Aerodrome Forecast
Issued by NWS

Home | Current Version | Previous Version | Text Only | Print | Product List | Glossary On
Versions: 1 2 3 4 5 6 7 8 9 10 11 12 13 14 15 16 17 18 19
000
FTUS41 KBOX 250522
TAFHYA
TAF
KHYA 250522Z 2506/2606 00000KT 3/4SM BR OVC002
      TEMPO 2507/2510 1/2SM FG OVC002
     FM251200 07004KT 4SM BR SCT003
     FM251400 06004KT P6SM SKC
     FM260200 VRB03KT 4SM BR BKN003=

USA.gov is the U.S. government's official web portal to all federal, state and local government web resources and services.